Flight Track Log - Related Links

Times and Time Zones

All times are in EDT time to prevent confusion due to time zone crossing. See the SWA3561 flight status page for this flight to view local times or setup timezone preferences in your user account.

Time Position Orientation Groundspeed Altitude Reporting Facility
EDT Latitude Longitude Course Direction KTS MPH feet Rate Location/Type
Sat 09:51:44 AM 32.8333 -96.8333 121° Southeast 166 191 1,600  Level Dallas / Fort Worth TRACON
Sat 09:52:14 AM 32.8167 -96.8000 121° Southeast 189 217 2,400 2,333 Climbing Dallas / Fort Worth TRACON
Sat 09:53:14 AM 32.7833 -96.7500 128° Southeast 239 275 5,100 1,750 Climbing Dallas / Fort Worth TRACON
Sat 09:54:14 AM 32.7000 -96.7333 170° South 291 335 5,900 1,700 Climbing Dallas / Fort Worth TRACON
Sat 09:56:14 AM 32.5814 -96.8192 211° Southwest 252 290 10,200 2,100 Climbing Fort Worth Center
Sat 09:57:14 AM 32.5211 -96.8689 215° Southwest 279 321 12,200 1,950 Climbing Fort Worth Center
Sat 09:58:14 AM 32.4192 -96.9139 200° South 331 381 14,100 2,300 Climbing Fort Worth Center
Sat 09:59:14 AM 32.3294 -96.9414 195° South 370 426 16,800 2,600 Climbing Fort Worth Center
Sat 10:00:14 AM 32.2250 -96.9739 195° South 380 437 19,300 2,300 Climbing Fort Worth Center
Sat 10:01:14 AM 32.1167 -97.0086 195° South 390 449 21,400 2,150 Climbing Fort Worth Center
Sat 10:02:14 AM 32.0061 -97.0386 193° South 403 464 23,600 1,950 Climbing Fort Worth Center
Sat 10:03:14 AM 31.8808 -97.0806 196° South 408 470 25,300 1,568 Climbing Fort Worth Center
Sat 10:04:05 AM 31.7867 -97.1078 194° South 434 499 26,500 1,446 Climbing Houston Center
Sat 10:05:06 AM 31.6628 -97.1469 195° South 450 518 28,000 1,707 Climbing Houston Center
Sat 10:06:08 AM 31.5403 -97.1836 194° South 451 519 30,000 976 Climbing Houston Center
Sat 10:07:09 AM 31.4197 -97.2203 195° South 444 511 30,000  Level Houston Center
Sat 10:08:11 AM 31.2992 -97.2558 194° South 443 510 30,000  Level Houston Center
Sat 10:09:12 AM 31.1817 -97.2919 195° South 437 503 30,000  Level Houston Center
Sat 10:10:14 AM 31.0664 -97.3272 195° South 430 495 30,000  Level Houston Center
Sat 10:11:15 AM 30.9325 -97.3647 194° South 431 496 30,000  Level Houston Center
Sat 10:12:17 AM 30.8181 -97.4006 195° South 429 494 30,000  Level Houston Center
Sat 10:13:18 AM 30.7061 -97.4328 194° South 417 480 30,000 -537 Level Houston Center
Sat 10:14:20 AM 30.5931 -97.4661 194° South 415 478 28,900 -1,790 Descending Houston Center
Sat 10:15:22 AM 30.4822 -97.4994 195° South 410 472 26,300 -2,390 Descending Houston Center
Sat 10:16:23 AM 30.3736 -97.5331 195° South 400 460 24,000 -1,512 Descending Houston Center
Sat 10:17:25 AM 30.2825 -97.5967 211° Southwest 379 436 23,200 -1,389 Descending Houston Center
Sat 10:17:58 AM 30.2317 -97.6331 212° Southwest 424 488 21,800 -2,361 Descending Houston Center
Sat 10:18:26 AM 30.1900 -97.6603 209° Southwest 380 437 20,800 -2,509 Descending Houston Center
Sat 10:18:53 AM 30.1408 -97.6931 210° Southwest 398 458 19,500 -2,806 Descending Houston Center
Sat 10:19:28 AM 30.0861 -97.7319 212° Southwest 371 427 17,900 -2,600 Descending Houston Center
Sat 10:19:53 AM 30.0483 -97.7581 211° Southwest 363 418 16,900 -2,323 Descending Houston Center
Sat 10:20:30 AM 29.9947 -97.7939 210° Southwest 365 420 15,500 -2,262 Descending Houston Center
Sat 10:20:54 AM 29.9639 -97.8172 213° Southwest 358 412 14,600 -2,323 Descending Houston Center
Sat 10:21:32 AM 29.9097 -97.8539 210° Southwest 359 413 13,100 -1,770 Descending Houston Center
Sat 10:21:55 AM 29.8886 -97.8869 234° Southwest 352 405 12,800 -2,066 Descending Houston Center
Sat 10:22:33 AM 29.8603 -97.9492 242° Southwest 347 399 11,000 -2,361 Descending Houston Center
Sat 10:22:56 AM 29.8436 -97.9867 243° Southwest 347 399 10,400 -1,065 Descending Houston Center
Sat 10:23:35 AM 29.8178 -98.0517 245° Southwest 329 379 9,900 -1,083 Descending Houston Center
Sat 10:24:08 AM 29.8039 -98.1000 252° West 302 348 9,100 -1,452 Descending Houston Center
Sat 10:24:37 AM 29.7939 -98.1431 255° West 302 348 8,400 -1,279 Descending Houston Center
Sat 10:25:09 AM 29.7850 -98.1914 258° West 284 327 7,800 -1,180 Descending Houston Center
Sat 10:25:38 AM 29.7764 -98.2369 258° West 281 323 7,200 -1,400 Descending Houston Center
Sat 10:26:09 AM 29.7700 -98.2753 259° West 271 312 6,400 -1,065 Descending Houston Center
Sat 10:26:40 AM 29.7628 -98.3214 260° West 270 311 6,100 -393 Descending Houston Center
Sat 10:27:10 AM 29.7553 -98.3661 259° West 261 300 6,000  Descending Houston Center
Sat 10:27:42 AM 29.7500 -98.4025 261° West 261 300 6,100  Climbing Houston Center
Sat 10:28:11 AM 29.7436 -98.4469 261° West 260 299 6,000 -484 Descending Houston Center
Sat 10:28:44 AM 29.7367 -98.4897 259° West 259 298 5,600 -1,100 Descending Houston Center
Sat 10:29:11 AM 29.7319 -98.5253 261° West 250 288 4,900 -1,279 Descending Houston Center
Sat 10:29:45 AM 29.7236 -98.5653 257° West 245 282 4,300 -1,377 Descending Houston Center
Sat 10:30:12 AM 29.7069 -98.5956 238° Southwest 231 266 3,500 -1,258 Descending Houston Center
Sat 10:30:47 AM 29.6817 -98.6272 227° Southwest 230 265 3,000 -545 Descending Houston Center
Sat 10:31:18 AM 29.6578 -98.6328 191° South 190 219 2,900 97 Descending Houston Center
Sat 10:31:49 AM 29.6417 -98.6131 133° Southeast 185 213 3,100 109 Climbing Houston Center
Sat 10:32:13 AM 29.6294 -98.5978 133° Southeast 174 200 3,000 -290 Descending Houston Center
Sat 10:32:51 AM 29.6097 -98.5714 131° Southeast 178 205 2,800 -689 Descending Houston Center
Sat 10:33:14 AM 29.5961 -98.5561 136° Southeast 162 186 2,300 -774 Descending Houston Center
Sat 10:33:53 AM 29.5808 -98.5336 128° Southeast 151 174 2,000 -700 Descending Houston Center
Sat 10:34:14 AM 29.5700 -98.5231 140° Southeast 136 157 1,600 -689 Descending Houston Center
Sat 10:34:54 AM 29.5556 -98.5000 126° Southeast 142 163 1,300 -412 Descending Houston Center
Sat 10:35:56 AM 29.5319 -98.4686 131° Southeast 140 161 900 -387 Descending Houston Center
Sat 10:37:00 AM 29.5333 -98.4667 16° North  Level FlightAware Approximate
Sat 10:44:00 AM 29.5340 -98.4691 16° North  Level Estimated

Login

Don't have an account? Register now (free) for customized features, flight alerts, and more!